Time;durP1;ratioP1;P1;durP2;ratioP2;P2;SDS_P1;SDS_P2;PMS_P1;PMS_P2;Temp;Humidity;BMP_temperature;BMP_pressure;BME280_temperature;BME280_humidity;BME280_pressure;Samples;Min_cycle;Max_cycle;Signal;HPM_P1;HPM_P2
2023/01/24 00:01:38;;;;;;;;;;;;;;;;;;5090637;28;19934;-79
2023/01/24 00:04:03;;;;;;;;;;;;;;;;;;5088809;28;19913;-78
2023/01/24 00:06:28;;;;;;;;;;;;;;;;;;5090695;28;20290;-78
2023/01/24 00:08:53;;;;;;;;;;;;;;;;;;5088492;28;20485;-79
2023/01/24 00:11:19;;;;;;;;;;;;;;;;;;5064072;28;19916;-79
2023/01/24 00:13:44;;;;;;;;;;;;;;;;;;5077050;28;19912;-79
2023/01/24 00:16:09;;;;;;;;;;;;;;;;;;5065738;28;19912;-79
2023/01/24 00:18:34;;;;;;;;;;;;;;;;;;5072385;28;19995;-79
2023/01/24 00:20:59;;;;;;;;;;;;;;;;;;5069518;28;19916;-78
2023/01/24 00:23:24;;;;;;;;;;;;;;;;;;5070687;28;19912;-79
2023/01/24 00:25:50;;;;;;;;;;;;;;;;;;5089792;28;19936;-79
2023/01/24 00:28:15;;;;;;;;;;;;;;;;;;5090096;28;20313;-79
2023/01/24 00:30:40;;;;;;;;;;;;;;;;;;5078566;28;20366;-79
2023/01/24 00:33:05;;;;;;;;;;;;;;;;;;5072753;28;19963;-79
2023/01/24 00:35:30;;;;;;;;;;;;;;;;;;5072508;28;19920;-79
2023/01/24 00:37:55;;;;;;;;;;;;;;;;;;5088992;28;20359;-78
2023/01/24 00:40:20;;;;;;;;;;;;;;;;;;5089636;28;20302;-79
2023/01/24 00:42:45;;;;;;;;;;;;;;;;;;5086295;28;20799;-79
2023/01/24 00:45:11;;;;;;;;;;;;;;;;;;5066074;28;19914;-79
2023/01/24 00:47:36;;;;;;;;;;;;;;;;;;5092594;28;19909;-79
2023/01/24 00:50:01;;;;;;;;;;;;;;;;;;5094543;28;20388;-79
2023/01/24 00:52:26;;;;;;;;;;;;;;;;;;5093033;28;19955;-79
2023/01/24 00:54:51;;;;;;;;;;;;;;;;;;5094639;28;19912;-79
2023/01/24 00:57:16;;;;;;;;;;;;;;;;;;5092095;28;19928;-79
2023/01/24 00:59:42;;;;;;;;;;;;;;;;;;5094408;28;19912;-79
2023/01/24 01:02:07;;;;;;;;;;;;;;;;;;5077756;28;19935;-79
2023/01/24 01:04:32;;;;;;;;;;;;;;;;;;5070178;28;19920;-79
2023/01/24 01:06:57;;;;;;;;;;;;;;;;;;5092517;28;20002;-80
2023/01/24 01:09:22;;;;;;;;;;;;;;;;;;5076730;28;19920;-79
2023/01/24 01:11:47;;;;;;;;;;;;;;;;;;5076235;28;19927;-80
2023/01/24 01:14:13;;;;;;;;;;;;;;;;;;5072735;28;19962;-80
2023/01/24 01:16:38;;;;;;;;;;;;;;;;;;5070446;28;19919;-80
2023/01/24 01:19:03;;;;;;;;;;;;;;;;;;5094328;28;19973;-79
2023/01/24 01:21:28;;;;;;;;;;;;;;;;;;5092583;28;20015;-80
2023/01/24 01:23:53;;;;;;;;;;;;;;;;;;5091336;28;19954;-79
2023/01/24 01:26:18;;;;;;;;;;;;;;;;;;5093241;28;19920;-80
2023/01/24 01:28:43;;;;;;;;;;;;;;;;;;5075758;28;19916;-79
2023/01/24 01:31:09;;;;;;;;;;;;;;;;;;5092153;28;19916;-80
2023/01/24 01:33:34;;;;;;;;;;;;;;;;;;5073159;28;20306;-80
2023/01/24 01:35:59;;;;;;;;;;;;;;;;;;5076083;28;19955;-79
2023/01/24 01:38:25;;;;;;;;;;;;;;;;;;5074518;28;19912;-80
2023/01/24 01:40:50;;;;;;;;;;;;;;;;;;5092954;28;20003;-80
2023/01/24 01:43:15;;;;;;;;;;;;;;;;;;5093183;28;20015;-80
2023/01/24 01:45:40;;;;;;;;;;;;;;;;;;5075487;28;19912;-79
2023/01/24 01:48:05;;;;;;;;;;;;;;;;;;5092053;28;19920;-79
2023/01/24 01:50:30;;;;;;;;;;;;;;;;;;5075531;28;19970;-79
2023/01/24 01:52:56;;;;;;;;;;;;;;;;;;5075274;28;19916;-79
2023/01/24 01:55:21;;;;;;;;;;;;;;;;;;5072892;28;19999;-79
2023/01/24 01:57:46;;;;;;;;;;;;;;;;;;5073978;28;19955;-79
2023/01/24 02:00:11;;;;;;;;;;;;;;;;;;5072028;28;19908;-79
2023/01/24 02:02:36;;;;;;;;;;;;;;;;;;5074353;28;19916;-79
2023/01/24 02:05:01;;;;;;;;;;;;;;;;;;5085115;28;19934;-79
2023/01/24 02:07:26;;;;;;;;;;;;;;;;;;5091916;28;20289;-80
2023/01/24 02:09:52;;;;;;;;;;;;;;;;;;5075545;28;19927;-79
2023/01/24 02:12:17;;;;;;;;;;;;;;;;;;5067078;28;20293;-79
2023/01/24 02:17:26;;;;;;;;;;;;;;;;;;5090009;28;19959;-79
2023/01/24 02:19:51;;;;;;;;;;;;;;;;;;5092472;28;19943;-79
2023/01/24 02:22:16;;;;;;;;;;;;;;;;;;5092252;28;20435;-79
2023/01/24 02:24:41;;;;;;;;;;;;;;;;;;5074852;28;19919;-79
2023/01/24 02:27:06;;;;;;;;;;;;;;;;;;5073404;28;20285;-79
2023/01/24 02:29:31;;;;;;;;;;;;;;;;;;5075089;28;20394;-80
2023/01/24 02:31:57;;;;;;;;;;;;;;;;;;5092269;28;20374;-79
2023/01/24 02:34:22;;;;;;;;;;;;;;;;;;5091533;28;19920;-79
2023/01/24 02:36:47;;;;;;;;;;;;;;;;;;5089926;28;19931;-79
2023/01/24 02:39:12;;;;;;;;;;;;;;;;;;5091923;28;19920;-79
2023/01/24 02:41:37;;;;;;;;;;;;;;;;;;5092541;28;19918;-79
2023/01/24 02:44:02;;;;;;;;;;;;;;;;;;5091323;28;19916;-79
2023/01/24 02:46:27;;;;;;;;;;;;;;;;;;5074302;28;19923;-79
2023/01/24 02:48:53;;;;;;;;;;;;;;;;;;5090556;28;19912;-80
2023/01/24 02:54:01;;;;;;;;;;;;;;;;;;5090164;28;19957;-79
2023/01/24 02:59:11;;;;;;;;;;;;;;;;;;5088854;28;19962;-79
2023/01/24 03:01:36;;;;;;;;;;;;;;;;;;5074207;28;19954;-79
2023/01/24 03:04:01;;;;;;;;;;;;;;;;;;5077681;28;19938;-78
2023/01/24 03:06:26;;;;;;;;;;;;;;;;;;5066077;28;19916;-79
2023/01/24 03:08:51;;;;;;;;;;;;;;;;;;5092218;28;20367;-79
2023/01/24 03:11:16;;;;;;;;;;;;;;;;;;5090240;28;19986;-79
2023/01/24 03:35:33;;;;;;;;;;;;;;;;;;5090752;28;20393;-79
2023/01/24 03:40:42;;;;;;;;;;;;;;;;;;5090598;28;19938;-79
2023/01/24 03:43:07;;;;;;;;;;;;;;;;;;5090935;28;20374;-79
2023/01/24 03:45:32;;;;;;;;;;;;;;;;;;5091236;28;19912;-79
2023/01/24 03:47:58;;;;;;;;;;;;;;;;;;5070536;28;20302;-78
2023/01/24 03:53:07;;;;;;;;;;;;;;;;;;5082127;28;20009;-78
2023/01/24 03:55:32;;;;;;;;;;;;;;;;;;5072928;28;19955;-78
2023/01/24 03:57:58;;;;;;;;;;;;;;;;;;5088811;28;20285;-79
2023/01/24 04:00:23;;;;;;;;;;;;;;;;;;5070302;28;20298;-79
2023/01/24 04:02:48;;;;;;;;;;;;;;;;;;5072832;28;19926;-79
2023/01/24 04:05:13;;;;;;;;;;;;;;;;;;5073104;28;19936;-79
2023/01/24 04:07:38;;;;;;;;;;;;;;;;;;5076411;28;19957;-79
2023/01/24 04:10:03;;;;;;;;;;;;;;;;;;5091645;28;19920;-79
2023/01/24 04:12:29;;;;;;;;;;;;;;;;;;5072197;28;19908;-79
2023/01/24 04:14:54;;;;;;;;;;;;;;;;;;5070846;28;20281;-79
2023/01/24 04:17:19;;;;;;;;;;;;;;;;;;5072804;28;20071;-79
2023/01/24 04:19:44;;;;;;;;;;;;;;;;;;5089675;28;19912;-79
2023/01/24 04:22:09;;;;;;;;;;;;;;;;;;5082373;28;19919;-79
2023/01/24 04:24:34;;;;;;;;;;;;;;;;;;5089975;28;20329;-79
2023/01/24 04:26:59;;;;;;;;;;;;;;;;;;5076000;28;20286;-79
2023/01/24 04:29:25;;;;;;;;;;;;;;;;;;5089135;28;19918;-79
2023/01/24 04:31:50;;;;;;;;;;;;;;;;;;5082687;28;20604;-79
2023/01/24 04:34:15;;;;;;;;;;;;;;;;;;5089945;28;20393;-79
2023/01/24 04:36:40;;;;;;;;;;;;;;;;;;5093688;28;19920;-79
2023/01/24 04:39:05;;;;;;;;;;;;;;;;;;5062760;28;19919;-79
2023/01/24 04:41:30;;;;;;;;;;;;;;;;;;5090658;28;20014;-79
2023/01/24 04:43:55;;;;;;;;;;;;;;;;;;5089004;28;19911;-79
2023/01/24 04:46:20;;;;;;;;;;;;;;;;;;5089264;28;20053;-79
2023/01/24 04:48:46;;;;;;;;;;;;;;;;;;5070445;28;20063;-79
2023/01/24 04:51:11;;;;;;;;;;;;;;;;;;5070816;28;19927;-79
2023/01/24 04:53:36;;;;;;;;;;;;;;;;;;5072833;28;20385;-79
2023/01/24 04:56:01;;;;;;;;;;;;;;;;;;5089596;28;20356;-79
2023/01/24 04:58:26;;;;;;;;;;;;;;;;;;5072879;28;20374;-80
2023/01/24 05:00:51;;;;;;;;;;;;;;;;;;5084025;28;19974;-79
2023/01/24 05:03:17;;;;;;;;;;;;;;;;;;5082150;28;20290;-79
2023/01/24 05:05:42;;;;;;;;;;;;;;;;;;5089059;28;19920;-79
2023/01/24 05:08:07;;;;;;;;;;;;;;;;;;5089563;28;19962;-81
2023/01/24 05:10:32;;;;;;;;;;;;;;;;;;5071285;28;19946;-79
2023/01/24 05:12:57;;;;;;;;;;;;;;;;;;5088036;28;20270;-79
2023/01/24 05:15:22;;;;;;;;;;;;;;;;;;5088472;28;20007;-79
2023/01/24 05:17:48;;;;;;;;;;;;;;;;;;5090894;28;19919;-78
2023/01/24 05:20:13;;;;;;;;;;;;;;;;;;5088834;28;19948;-78
2023/01/24 05:22:38;;;;;;;;;;;;;;;;;;5071885;28;19916;-79
2023/01/24 05:25:03;;;;;;;;;;;;;;;;;;5085590;28;19912;-79
2023/01/24 05:27:28;;;;;;;;;;;;;;;;;;5070101;28;19923;-79
2023/01/24 05:29:53;;;;;;;;;;;;;;;;;;5069332;28;19918;-80
2023/01/24 05:32:19;;;;;;;;;;;;;;;;;;5088706;28;19941;-79
2023/01/24 05:34:44;;;;;;;;;;;;;;;;;;5074250;28;19924;-80
2023/01/24 05:37:09;;;;;;;;;;;;;;;;;;5072175;28;20366;-79
2023/01/24 05:39:34;;;;;;;;;;;;;;;;;;5090792;28;20430;-81
2023/01/24 05:41:59;;;;;;;;;;;;;;;;;;5088689;28;19912;-78
2023/01/24 05:44:24;;;;;;;;;;;;;;;;;;5075037;28;19908;-78
2023/01/24 05:46:49;;;;;;;;;;;;;;;;;;5090720;28;19920;-80
2023/01/24 05:49:14;;;;;;;;;;;;;;;;;;5075206;28;19909;-78
2023/01/24 05:51:40;;;;;;;;;;;;;;;;;;5092436;28;19920;-78
2023/01/24 05:54:05;;;;;;;;;;;;;;;;;;5075408;28;19963;-78
2023/01/24 05:56:46;;;;;;;;;;;;;;;;;;5073624;28;19917;-81
2023/01/24 05:59:13;;;;;;;;;;;;;;;;;;5074331;28;20417;-78
2023/01/24 06:01:41;;;;;;;;;;;;;;;;;;5070450;28;19919;-78
2023/01/24 06:04:06;;;;;;;;;;;;;;;;;;5066380;28;19912;-79
2023/01/24 06:06:31;;;;;;;;;;;;;;;;;;5086320;28;20268;-79
2023/01/24 06:08:56;;;;;;;;;;;;;;;;;;5083867;28;19951;-79
2023/01/24 06:11:22;;;;;;;;;;;;;;;;;;5081957;28;19920;-81
2023/01/24 06:13:47;;;;;;;;;;;;;;;;;;5087214;28;19912;-81
2023/01/24 06:16:12;;;;;;;;;;;;;;;;;;5074481;28;19942;-85
2023/01/24 06:18:37;;;;;;;;;;;;;;;;;;5063158;28;19923;-79
2023/01/24 06:21:02;;;;;;;;;;;;;;;;;;5092562;28;19912;-80
2023/01/24 06:23:27;;;;;;;;;;;;;;;;;;5076468;28;19916;-80
2023/01/24 06:25:52;;;;;;;;;;;;;;;;;;5084839;28;19966;-80
2023/01/24 06:28:18;;;;;;;;;;;;;;;;;;5072329;28;19939;-80
2023/01/24 06:30:43;;;;;;;;;;;;;;;;;;5073888;28;19916;-80
2023/01/24 06:33:08;;;;;;;;;;;;;;;;;;5085917;28;19954;-81
2023/01/24 06:35:33;;;;;;;;;;;;;;;;;;5054727;28;19917;-79
2023/01/24 06:37:58;;;;;;;;;;;;;;;;;;5061242;28;19914;-81
2023/01/24 06:40:24;;;;;;;;;;;;;;;;;;4991762;28;20036;-78
2023/01/24 06:42:49;;;;;;;;;;;;;;;;;;5058454;28;19919;-78
2023/01/24 06:45:14;;;;;;;;;;;;;;;;;;4990252;28;19988;-79
2023/01/24 06:47:40;;;;;;;;;;;;;;;;;;5058534;28;19917;-79
2023/01/24 06:50:07;;;;;;;;;;;;;;;;;;5012246;28;19921;-79
2023/01/24 06:52:32;;;;;;;;;;;;;;;;;;5010965;28;19975;-81
2023/01/24 06:54:58;;;;;;;;;;;;;;;;;;5070647;28;19918;-81
2023/01/24 06:57:23;;;;;;;;;;;;;;;;;;5062305;28;19922;-78
2023/01/24 06:59:48;;;;;;;;;;;;;;;;;;5067337;28;20016;-78
2023/01/24 07:02:13;;;;;;;;;;;;;;;;;;4991743;28;19910;-78
2023/01/24 07:04:38;;;;;;;;;;;;;;;;;;4991466;28;19910;-78
2023/01/24 07:07:05;;;;;;;;;;;;;;;;;;5053957;28;19914;-77
2023/01/24 07:09:31;;;;;;;;;;;;;;;;;;5041500;28;19914;-78
2023/01/24 07:11:57;;;;;;;;;;;;;;;;;;4990017;28;19924;-78
2023/01/24 07:14:22;;;;;;;;;;;;;;;;;;4990891;28;19920;-78
2023/01/24 07:16:47;;;;;;;;;;;;;;;;;;5058146;28;20283;-78
2023/01/24 07:19:12;;;;;;;;;;;;;;;;;;5058530;28;19917;-78
2023/01/24 07:21:38;;;;;;;;;;;;;;;;;;4989654;28;19938;-78
2023/01/24 07:24:03;;;;;;;;;;;;;;;;;;4991098;28;19913;-78
2023/01/24 07:26:28;;;;;;;;;;;;;;;;;;5056151;28;20008;-78
2023/01/24 07:28:53;;;;;;;;;;;;;;;;;;5074461;28;19992;-78
2023/01/24 07:31:18;;;;;;;;;;;;;;;;;;5073019;28;20364;-78
2023/01/24 07:33:43;;;;;;;;;;;;;;;;;;4989418;28;20412;-78
2023/01/24 07:36:08;;;;;;;;;;;;;;;;;;5063589;28;19916;-78
2023/01/24 07:38:34;;;;;;;;;;;;;;;;;;5094669;28;19938;-78
2023/01/24 07:40:59;;;;;;;;;;;;;;;;;;5092116;28;19965;-78
2023/01/24 07:43:24;;;;;;;;;;;;;;;;;;5074505;28;20294;-78
2023/01/24 07:45:49;;;;;;;;;;;;;;;;;;5067272;28;19959;-78
2023/01/24 07:48:14;;;;;;;;;;;;;;;;;;5054721;28;19908;-78
2023/01/24 07:50:39;;;;;;;;;;;;;;;;;;5085670;28;19920;-78
2023/01/24 07:53:05;;;;;;;;;;;;;;;;;;5074640;28;19908;-78
2023/01/24 07:55:30;;;;;;;;;;;;;;;;;;5074501;28;20274;-78
2023/01/24 07:57:55;;;;;;;;;;;;;;;;;;5073991;28;19908;-78
2023/01/24 08:00:20;;;;;;;;;;;;;;;;;;5073738;28;19955;-78
2023/01/24 08:02:45;;;;;;;;;;;;;;;;;;5086238;28;19920;-78
2023/01/24 08:05:10;;;;;;;;;;;;;;;;;;5085864;28;19998;-78
2023/01/24 08:07:36;;;;;;;;;;;;;;;;;;5077426;28;19916;-78
2023/01/24 08:10:01;;;;;;;;;;;;;;;;;;5084402;28;20377;-78
2023/01/24 08:12:26;;;;;;;;;;;;;;;;;;5074160;28;20259;-78
2023/01/24 08:14:51;;;;;;;;;;;;;;;;;;5074142;28;19915;-78
2023/01/24 08:17:16;;;;;;;;;;;;;;;;;;5092410;28;19908;-78
2023/01/24 08:19:41;;;;;;;;;;;;;;;;;;5074733;28;19912;-78
2023/01/24 08:22:06;;;;;;;;;;;;;;;;;;5080778;28;20006;-79
2023/01/24 08:24:32;;;;;;;;;;;;;;;;;;5094509;28;19950;-79
2023/01/24 08:26:57;;;;;;;;;;;;;;;;;;5094320;28;19957;-79
2023/01/24 08:29:22;;;;;;;;;;;;;;;;;;5093481;28;20393;-79
2023/01/24 08:31:48;;;;;;;;;;;;;;;;;;5070753;28;19920;-79
2023/01/24 08:34:13;;;;;;;;;;;;;;;;;;5091658;28;19912;-79
2023/01/24 08:36:38;;;;;;;;;;;;;;;;;;5073134;28;19924;-79
2023/01/24 08:39:04;;;;;;;;;;;;;;;;;;5092716;28;19915;-79
2023/01/24 08:41:29;;;;;;;;;;;;;;;;;;5072693;28;19920;-79
2023/01/24 08:43:54;;;;;;;;;;;;;;;;;;5073117;28;19935;-79
2023/01/24 08:46:19;;;;;;;;;;;;;;;;;;5092096;28;19912;-79
2023/01/24 08:48:44;;;;;;;;;;;;;;;;;;5086689;28;20327;-79
2023/01/24 08:51:09;;;;;;;;;;;;;;;;;;5082981;28;20370;-79
2023/01/24 08:53:35;;;;;;;;;;;;;;;;;;5073284;28;19919;-78
2023/01/24 08:56:00;;;;;;;;;;;;;;;;;;5073846;28;20012;-78
2023/01/24 08:58:25;;;;;;;;;;;;;;;;;;5091682;28;19999;-78
2023/01/24 09:00:50;;;;;;;;;;;;;;;;;;5073019;28;19934;-78
2023/01/24 09:03:16;;;;;;;;;;;;;;;;;;5076624;28;20290;-79
2023/01/24 09:05:41;;;;;;;;;;;;;;;;;;5091889;28;19908;-78
2023/01/24 09:08:06;;;;;;;;;;;;;;;;;;5079645;28;19912;-79
2023/01/24 09:10:31;;;;;;;;;;;;;;;;;;5076983;28;19931;-79
2023/01/24 09:12:56;;;;;;;;;;;;;;;;;;5077602;28;19908;-79
2023/01/24 09:15:21;;;;;;;;;;;;;;;;;;5076254;28;19916;-79
2023/01/24 09:17:46;;;;;;;;;;;;;;;;;;5094637;28;19955;-80
2023/01/24 09:20:12;;;;;;;;;;;;;;;;;;5095728;28;19908;-80
2023/01/24 09:22:37;;;;;;;;;;;;;;;;;;5095663;28;20010;-80
2023/01/24 09:25:03;;;;;;;;;;;;;;;;;;5094560;28;19916;-79
2023/01/24 09:27:28;;;;;;;;;;;;;;;;;;5076082;28;20011;-79
2023/01/24 09:29:53;;;;;;;;;;;;;;;;;;5076621;28;19997;-79
2023/01/24 09:32:18;;;;;;;;;;;;;;;;;;5077847;28;19908;-79
2023/01/24 09:34:47;;;;;;;;;;;;;;;;;;5076014;28;19913;-79
2023/01/24 09:37:13;;;;;;;;;;;;;;;;;;5093678;28;19965;-79
2023/01/24 09:39:39;;;;;;;;;;;;;;;;;;5077723;28;20286;-78
2023/01/24 09:42:04;;;;;;;;;;;;;;;;;;5076966;28;19915;-77
2023/01/24 09:44:29;;;;;;;;;;;;;;;;;;5068998;28;19999;-78
2023/01/24 09:46:54;;;;;;;;;;;;;;;;;;5076270;28;19912;-78
2023/01/24 09:49:19;;;;;;;;;;;;;;;;;;5076741;28;20381;-78
2023/01/24 09:51:44;;;;;;;;;;;;;;;;;;5076694;28;20007;-78
2023/01/24 09:54:09;;;;;;;;;;;;;;;;;;5075487;28;19971;-78
2023/01/24 09:56:35;;;;;;;;;;;;;;;;;;5076540;28;19919;-78
2023/01/24 09:59:00;;;;;;;;;;;;;;;;;;5072354;28;19946;-78
2023/01/24 10:01:25;;;;;;;;;;;;;;;;;;5075089;28;19908;-78
2023/01/24 10:03:50;;;;;;;;;;;;;;;;;;5074572;28;20378;-78
2023/01/24 10:06:16;;;;;;;;;;;;;;;;;;5074081;28;19912;-78
2023/01/24 10:08:42;;;;;;;;;;;;;;;;;;5091975;28;19912;-78
2023/01/24 10:11:07;;;;;;;;;;;;;;;;;;5074387;28;19944;-78
2023/01/24 10:13:32;;;;;;;;;;;;;;;;;;5074104;28;20465;-78
2023/01/24 10:15:57;;;;;;;;;;;;;;;;;;5089613;28;20378;-78
2023/01/24 10:18:22;;;;;;;;;;;;;;;;;;5094210;28;19909;-78
2023/01/24 10:20:47;;;;;;;;;;;;;;;;;;5085079;28;19913;-78
2023/01/24 10:23:12;;;;;;;;;;;;;;;;;;5094560;28;19962;-78
2023/01/24 10:25:38;;;;;;;;;;;;;;;;;;5070039;28;19966;-78
2023/01/24 10:28:03;;;;;;;;;;;;;;;;;;5055486;28;19908;-79
2023/01/24 10:30:28;;;;;;;;;;;;;;;;;;5085799;28;20022;-77
2023/01/24 10:32:53;;;;;;;;;;;;;;;;;;5075964;28;19942;-78
2023/01/24 10:35:18;;;;;;;;;;;;;;;;;;5073589;28;19939;-79
2023/01/24 10:37:43;;;;;;;;;;;;;;;;;;5072333;28;19916;-79
2023/01/24 10:40:09;;;;;;;;;;;;;;;;;;5065043;28;20008;-78
2023/01/24 10:42:34;;;;;;;;;;;;;;;;;;5055897;28;19983;-78
2023/01/24 10:44:59;;;;;;;;;;;;;;;;;;5080858;28;19994;-78
2023/01/24 10:47:24;;;;;;;;;;;;;;;;;;5093037;28;19924;-78
2023/01/24 10:49:49;;;;;;;;;;;;;;;;;;5086034;28;19913;-78
2023/01/24 10:52:14;;;;;;;;;;;;;;;;;;5073565;28;19921;-78
2023/01/24 10:54:39;;;;;;;;;;;;;;;;;;5080545;28;19970;-78
2023/01/24 10:57:04;;;;;;;;;;;;;;;;;;5091815;28;19916;-78
2023/01/24 10:59:30;;;;;;;;;;;;;;;;;;5088684;28;20019;-77
2023/01/24 11:01:55;;;;;;;;;;;;;;;;;;5060959;28;19945;-78
2023/01/24 11:04:20;;;;;;;;;;;;;;;;;;5075059;28;20018;-78
2023/01/24 11:06:45;;;;;;;;;;;;;;;;;;5092145;28;19957;-78
2023/01/24 11:09:11;;;;;;;;;;;;;;;;;;5071896;28;19981;-79
2023/01/24 11:11:36;;;;;;;;;;;;;;;;;;5091621;28;20333;-78
2023/01/24 11:14:01;;;;;;;;;;;;;;;;;;5092082;28;19908;-79
2023/01/24 11:16:26;;;;;;;;;;;;;;;;;;5084090;28;20010;-79
2023/01/24 11:18:51;;;;;;;;;;;;;;;;;;5101324;28;19919;-78
2023/01/24 11:21:16;;;;;;;;;;;;;;;;;;5088849;28;19912;-79
2023/01/24 11:23:41;;;;;;;;;;;;;;;;;;5093369;28;19915;-78
2023/01/24 11:26:07;;;;;;;;;;;;;;;;;;5090952;28;20434;-78
2023/01/24 11:28:32;;;;;;;;;;;;;;;;;;5091968;28;19912;-78
2023/01/24 11:30:57;;;;;;;;;;;;;;;;;;5088820;28;20464;-78
2023/01/24 11:33:22;;;;;;;;;;;;;;;;;;5091450;28;19912;-78
2023/01/24 11:35:47;;;;;;;;;;;;;;;;;;5060613;28;19916;-79
2023/01/24 11:38:12;;;;;;;;;;;;;;;;;;5069156;28;19912;-78
2023/01/24 11:40:38;;;;;;;;;;;;;;;;;;5072753;28;20270;-79
2023/01/24 11:43:03;;;;;;;;;;;;;;;;;;5070265;28;19913;-78
2023/01/24 11:45:28;;;;;;;;;;;;;;;;;;5064173;28;19955;-78
2023/01/24 11:47:54;;;;;;;;;;;;;;;;;;5074357;28;19908;-78
2023/01/24 11:50:20;;;;;;;;;;;;;;;;;;5074093;28;19927;-79
2023/01/24 11:52:45;;;;;;;;;;;;;;;;;;5074836;28;19914;-79
2023/01/24 11:55:10;;;;;;;;;;;;;;;;;;5091049;28;19916;-78
2023/01/24 11:57:35;;;;;;;;;;;;;;;;;;5074265;28;19916;-79
2023/01/24 12:00:01;;;;;;;;;;;;;;;;;;5071166;28;19912;-79
2023/01/24 12:02:26;;;;;;;;;;;;;;;;;;5092684;28;19966;-79
2023/01/24 12:04:51;;;;;;;;;;;;;;;;;;5073365;28;20405;-78
2023/01/24 12:07:16;;;;;;;;;;;;;;;;;;5072629;28;19963;-78
2023/01/24 12:09:41;;;;;;;;;;;;;;;;;;5089377;28;19912;-78
2023/01/24 12:12:09;;;;;;;;;;;;;;;;;;5066570;28;19961;-78
2023/01/24 12:14:35;;;;;;;;;;;;;;;;;;5071331;28;20041;-79
2023/01/24 12:17:00;;;;;;;;;;;;;;;;;;5070769;28;20018;-78
2023/01/24 12:19:25;;;;;;;;;;;;;;;;;;5074392;28;19961;-79
2023/01/24 12:21:50;;;;;;;;;;;;;;;;;;5054593;28;19974;-78
2023/01/24 12:24:15;;;;;;;;;;;;;;;;;;5087128;28;19919;-79
2023/01/24 12:26:40;;;;;;;;;;;;;;;;;;5069674;28;19916;-78
2023/01/24 12:29:05;;;;;;;;;;;;;;;;;;5073388;28;19908;-80
2023/01/24 12:31:31;;;;;;;;;;;;;;;;;;5057492;28;20511;-78
2023/01/24 12:33:56;;;;;;;;;;;;;;;;;;5079879;28;20446;-78
2023/01/24 12:36:21;;;;;;;;;;;;;;;;;;5066300;28;19916;-79
2023/01/24 12:38:46;;;;;;;;;;;;;;;;;;5072285;28;19912;-78
2023/01/24 12:41:12;;;;;;;;;;;;;;;;;;5086801;28;19917;-79
2023/01/24 12:43:37;;;;;;;;;;;;;;;;;;5070417;28;20011;-79
2023/01/24 12:46:02;;;;;;;;;;;;;;;;;;5095946;28;19912;-78
2023/01/24 12:48:27;;;;;;;;;;;;;;;;;;5096082;28;19918;-79
2023/01/24 12:50:52;;;;;;;;;;;;;;;;;;5075121;28;19955;-78
2023/01/24 12:53:17;;;;;;;;;;;;;;;;;;5078067;28;19912;-79
2023/01/24 12:55:45;;;;;;;;;;;;;;;;;;5076845;28;19908;-78
2023/01/24 12:58:10;;;;;;;;;;;;;;;;;;5076895;28;19912;-78
2023/01/24 13:00:35;;;;;;;;;;;;;;;;;;5077463;28;20270;-79
2023/01/24 13:03:18;;;;;;;;;;;;;;;;;;5095753;28;19993;-79
2023/01/24 13:05:43;;;;;;;;;;;;;;;;;;5095193;28;20282;-78
2023/01/24 13:08:08;;;;;;;;;;;;;;;;;;5076518;28;19938;-78
2023/01/24 13:10:33;;;;;;;;;;;;;;;;;;5075050;28;20363;-78
2023/01/24 13:12:58;;;;;;;;;;;;;;;;;;5076828;28;19916;-79
2023/01/24 13:15:24;;;;;;;;;;;;;;;;;;5075392;28;20354;-78
2023/01/24 13:17:50;;;;;;;;;;;;;;;;;;5077028;28;20011;-78
2023/01/24 13:20:15;;;;;;;;;;;;;;;;;;5077769;28;19908;-78
2023/01/24 13:22:41;;;;;;;;;;;;;;;;;;5076491;28;20007;-79
2023/01/24 13:25:06;;;;;;;;;;;;;;;;;;5073574;28;19994;-79
2023/01/24 13:27:31;;;;;;;;;;;;;;;;;;5075037;28;19950;-78
2023/01/24 13:29:56;;;;;;;;;;;;;;;;;;5056660;28;19909;-78
2023/01/24 13:32:22;;;;;;;;;;;;;;;;;;5057728;28;19978;-79
2023/01/24 13:34:49;;;;;;;;;;;;;;;;;;5075034;28;19912;-78
2023/01/24 13:37:14;;;;;;;;;;;;;;;;;;5077371;28;20382;-78
2023/01/24 13:39:41;;;;;;;;;;;;;;;;;;5095264;28;20385;-78
2023/01/24 13:42:06;;;;;;;;;;;;;;;;;;5077028;28;19908;-79
2023/01/24 13:44:33;;;;;;;;;;;;;;;;;;5089693;28;19923;-78
2023/01/24 13:46:58;;;;;;;;;;;;;;;;;;5089832;28;19931;-79
2023/01/24 13:49:23;;;;;;;;;;;;;;;;;;5094897;28;19907;-78
2023/01/24 13:51:49;;;;;;;;;;;;;;;;;;5076250;28;19931;-78
2023/01/24 13:54:14;;;;;;;;;;;;;;;;;;5076189;28;19915;-78
2023/01/24 13:56:39;;;;;;;;;;;;;;;;;;5094824;28;19998;-78
2023/01/24 13:59:04;;;;;;;;;;;;;;;;;;5094443;28;19908;-78
2023/01/24 14:01:29;;;;;;;;;;;;;;;;;;5076207;28;19973;-78
2023/01/24 14:03:54;;;;;;;;;;;;;;;;;;5076434;28;19983;-79
2023/01/24 14:06:20;;;;;;;;;;;;;;;;;;5094211;28;19953;-78
2023/01/24 14:08:45;;;;;;;;;;;;;;;;;;5091766;28;19908;-78
2023/01/24 14:11:10;;;;;;;;;;;;;;;;;;5087812;28;20324;-78
2023/01/24 14:13:35;;;;;;;;;;;;;;;;;;5075058;28;20275;-78
2023/01/24 14:16:00;;;;;;;;;;;;;;;;;;5076440;28;20389;-78
2023/01/24 14:18:25;;;;;;;;;;;;;;;;;;5094401;28;19978;-78
2023/01/24 14:20:50;;;;;;;;;;;;;;;;;;5094332;28;20209;-78
2023/01/24 14:23:16;;;;;;;;;;;;;;;;;;5094434;28;19918;-78
2023/01/24 14:25:41;;;;;;;;;;;;;;;;;;5094219;28;19920;-78
2023/01/24 14:28:06;;;;;;;;;;;;;;;;;;5094158;28;19915;-78
2023/01/24 14:30:31;;;;;;;;;;;;;;;;;;5075796;28;19920;-79
2023/01/24 14:32:56;;;;;;;;;;;;;;;;;;5094469;28;19916;-79
2023/01/24 14:35:21;;;;;;;;;;;;;;;;;;5092409;28;20415;-79
2023/01/24 14:37:47;;;;;;;;;;;;;;;;;;5090847;28;20334;-78
2023/01/24 14:40:18;;;;;;;;;;;;;;;;;;5074640;28;19942;-85
2023/01/24 14:42:43;;;;;;;;;;;;;;;;;;5074816;28;20281;-82
2023/01/24 14:45:08;;;;;;;;;;;;;;;;;;5092369;28;20281;-84
2023/01/24 14:47:33;;;;;;;;;;;;;;;;;;5072019;28;20295;-82
2023/01/24 14:49:58;;;;;;;;;;;;;;;;;;5072819;28;19912;-83
2023/01/24 14:52:24;;;;;;;;;;;;;;;;;;5074007;28;19945;-84
2023/01/24 14:54:52;;;;;;;;;;;;;;;;;;5072023;28;20453;-81
2023/01/24 14:57:17;;;;;;;;;;;;;;;;;;5073463;28;19935;-84
2023/01/24 14:59:42;;;;;;;;;;;;;;;;;;5072887;28;20358;-81
2023/01/24 15:02:15;;;;;;;;;;;;;;;;;;5076501;28;19908;-83
2023/01/24 15:04:40;;;;;;;;;;;;;;;;;;5076246;28;19915;-83
2023/01/24 15:07:05;;;;;;;;;;;;;;;;;;5066519;28;20160;-81
2023/01/24 15:09:30;;;;;;;;;;;;;;;;;;5070902;28;19916;-82
2023/01/24 15:11:55;;;;;;;;;;;;;;;;;;5074080;28;20047;-83
2023/01/24 15:14:23;;;;;;;;;;;;;;;;;;5073561;28;19966;-83
2023/01/24 15:16:48;;;;;;;;;;;;;;;;;;5074311;28;19916;-81
2023/01/24 15:19:13;;;;;;;;;;;;;;;;;;5070472;28;19986;-81
2023/01/24 15:21:39;;;;;;;;;;;;;;;;;;5066584;28;20346;-84
2023/01/24 15:24:04;;;;;;;;;;;;;;;;;;5073946;28;20024;-82
2023/01/24 15:26:40;;;;;;;;;;;;;;;;;;5101606;27;19958;-73
2023/01/24 15:29:05;;;;;;;;;;;;;;;;;;5107605;28;19912;-74
2023/01/24 15:31:30;;;;;;;;;;;;;;;;;;5103605;28;19912;-73
2023/01/24 15:33:55;;;;;;;;;;;;;;;;;;5093890;28;20249;-75
2023/01/24 15:36:20;;;;;;;;;;;;;;;;;;5105823;28;20388;-74
2023/01/24 15:38:45;;;;;;;;;;;;;;;;;;5096957;28;20394;-74
2023/01/24 15:41:11;;;;;;;;;;;;;;;;;;5095278;28;20414;-73
2023/01/24 15:43:45;;;;;;;;;;;;;;;;;;5108838;28;20202;-73
2023/01/24 15:48:54;;;;;;;;;;;;;;;;;;5095583;28;19918;-75
2023/01/24 15:51:19;;;;;;;;;;;;;;;;;;5106823;28;19912;-74
2023/01/24 15:53:44;;;;;;;;;;;;;;;;;;5105254;28;19912;-74
2023/01/24 15:56:10;;;;;;;;;;;;;;;;;;5086172;28;19912;-74
2023/01/24 15:58:35;;;;;;;;;;;;;;;;;;5107550;28;20011;-75
2023/01/24 16:01:00;;;;;;;;;;;;;;;;;;5086420;28;19912;-72
2023/01/24 16:03:25;;;;;;;;;;;;;;;;;;5109075;28;19962;-73
2023/01/24 16:05:50;;;;;;;;;;;;;;;;;;5107042;28;20025;-73
2023/01/24 16:08:16;;;;;;;;;;;;;;;;;;5101635;28;19912;-73
2023/01/24 16:10:41;;;;;;;;;;;;;;;;;;5079393;28;19916;-72
2023/01/24 16:13:06;;;;;;;;;;;;;;;;;;5102143;28;19916;-73
2023/01/24 16:15:31;;;;;;;;;;;;;;;;;;5103488;28;19959;-72
2023/01/24 16:17:56;;;;;;;;;;;;;;;;;;5071544;28;19909;-74
2023/01/24 16:20:21;;;;;;;;;;;;;;;;;;5089007;28;19908;-74
2023/01/24 16:22:47;;;;;;;;;;;;;;;;;;5095281;28;19916;-73
2023/01/24 16:25:12;;;;;;;;;;;;;;;;;;5085655;28;19916;-74
2023/01/24 16:27:38;;;;;;;;;;;;;;;;;;5108907;28;19915;-73
2023/01/24 16:30:03;;;;;;;;;;;;;;;;;;5075574;28;20441;-74
2023/01/24 16:32:28;;;;;;;;;;;;;;;;;;5081802;28;19916;-73
2023/01/24 16:34:53;;;;;;;;;;;;;;;;;;5084197;28;19919;-73
2023/01/24 16:37:19;;;;;;;;;;;;;;;;;;5088850;28;19943;-73
2023/01/24 16:39:44;;;;;;;;;;;;;;;;;;5066692;28;19970;-73
2023/01/24 16:42:09;;;;;;;;;;;;;;;;;;5091210;28;19953;-73
2023/01/24 16:44:34;;;;;;;;;;;;;;;;;;5087281;28;20337;-73
2023/01/24 16:46:59;;;;;;;;;;;;;;;;;;5086636;28;20225;-73
2023/01/24 16:49:25;;;;;;;;;;;;;;;;;;5074740;28;19912;-74
2023/01/24 16:51:50;;;;;;;;;;;;;;;;;;5078186;28;19916;-74
2023/01/24 16:54:15;;;;;;;;;;;;;;;;;;5060513;28;19915;-73
2023/01/24 16:56:42;;;;;;;;;;;;;;;;;;5070490;28;20372;-74
2023/01/24 16:59:07;;;;;;;;;;;;;;;;;;5092111;28;19908;-73
2023/01/24 17:01:32;;;;;;;;;;;;;;;;;;5088318;28;19912;-73
2023/01/24 17:03:58;;;;;;;;;;;;;;;;;;5089018;28;20331;-74
2023/01/24 17:06:23;;;;;;;;;;;;;;;;;;5074134;28;19920;-73
2023/01/24 17:08:48;;;;;;;;;;;;;;;;;;5077397;28;20391;-74
2023/01/24 17:11:15;;;;;;;;;;;;;;;;;;5088801;28;19916;-73